Roberts International Airport

Jump to: basic info | weather | frequencies | runways | comments

Related pages: nearby airports | nearby navaids | notams | map

Basic information (top)

Codes: ROB GLRB
Location: lon 6.233790, lat -10.362300, elev 31 ft / 9 m msl
Status: medium_airport
Scheduled airline service: yes
Links: Wikipedia Mobile

Weather (top)

Current conditions (rec'd 2015/03/28 14:00Z):

GLRB 281400Z 24012KT 9999 FEW022 31/25 Q1012 NOSIG

Airport forecast (rec'd 2015/03/28 06:51Z):

TAF GLRB 280400Z 2806/2912 23010KT 9999 BKN018 
      TEMPO 2807/2811 04006KT 9999 SCT015 BKN110 
      TEMPO 2812/2816 23013KT 9999 SCT018 BKN260

Frequencies (top)

Verify before use: may be inaccurate or out of date.

A/G: 345.2 MHz (A/G VOICE RDO)
APP: 124.5 MHz (ROBERTS APP)
GND: 121.9 MHz (GND)
TWR: 118.3 MHz (ROBERTS TWR)

Runways (top)

04/22: 11,000 x 150 ft (3,353 x 46 m) — paved — lighted — threshold 22 displaced 1,200 ft (366 m)

Latest comments (top)

No comments yet for Roberts International Airport

More... (top)

See also NOTAMs and nearby airports and navaids, or visit the Roberts International Airport page at the main OurAirports website..